This is the latest recevied weather packets stored in our database for station/object KR4KUV. If no packets are shown the sender has not sent any weather packets the latest 10 day(s).
| Time | Temp. | Humidity | Pressure | Rain* | Wind** | Luminosity | Snow |
|---|---|---|---|---|---|---|---|
| 1787941416 | 30.56° C | 67% | 1018.4 hPa | 0 mm | - | 172 W/m² | - |
| 1787941115 | 30.56° C | 69% | 1018.4 hPa | 0 mm | - | 369 W/m² | - |
| 1787940811 | 29.44° C | 74% | 1018.5 hPa | 0 mm | - | 221 W/m² | - |
| 1787940508 | 30° C | 70% | 1018.7 hPa | 0 mm | - | 151 W/m² | - |
| 1787940207 | 30.56° C | 71% | 1018.8 hPa | 0 mm | - | 145 W/m² | - |
| 1787939902 | 31.11° C | 68% | 1018.9 hPa | 0 mm | - | 169 W/m² | - |
| 1787939596 | 30.56° C | 68% | 1018.9 hPa | 0 mm | - | 789 W/m² | - |
| 1787939291 | 30° C | 73% | 1018.9 hPa | 0 mm | - | 570 W/m² | - |
| 1787938986 | 30° C | 74% | 1019.1 hPa | 0 mm | - | 176 W/m² | - |
| 1787938684 | 30° C | 72% | 1019 hPa | 0 mm | - | 158 W/m² | - |
| 1787938382 | 30° C | 73% | 1019.3 hPa | 0 mm | - | 148 W/m² | - |
| 1787938082 | 30° C | 73% | 1019.3 hPa | 0 mm | - | 188 W/m² | - |
| 1787937777 | 30° C | 72% | 1019.4 hPa | 0 mm | - | 203 W/m² | - |
| 1787937473 | 30° C | 73% | 1019.1 hPa | 0 mm | - | 179 W/m² | - |
| 1787937169 | 30° C | 75% | 1019.3 hPa | 0 mm | - | 188 W/m² | - |
| 1787936869 | 30° C | 73% | 1019.3 hPa | 0 mm | - | 219 W/m² | - |
| 1787936568 | 30.56° C | 73% | 1019.4 hPa | 0 mm | - | 526 W/m² | - |
| 1787936268 | 30.56° C | 71% | 1019.5 hPa | 0 mm | - | 222 W/m² | - |
| 1787935964 | 31.11° C | 71% | 1019.5 hPa | 0 mm | - | 516 W/m² | - |
| 1787935658 | 30.56° C | 70% | 1019.4 hPa | 0 mm | - | 793 W/m² | - |
| 1787935355 | 30.56° C | 73% | 1019.6 hPa | 0 mm | - | 664 W/m² | - |
| 1787935050 | 30° C | 73% | 1019.7 hPa | 0 mm | - | 556 W/m² | - |
| 1787934746 | 30° C | 74% | 1019.7 hPa | 0 mm | - | 691 W/m² | - |
| 1787934444 | 30° C | 74% | 1019.7 hPa | 0 mm | - | 658 W/m² | - |
| 1787934139 | 30° C | 73% | 1019.9 hPa | 0 mm | - | 579 W/m² | - |
* Rain latest hour (hover to see other rain measurements)
** Current wind speed in m/s (hover to see current wind gust speed)